sensor_id;sensor_type;location;lat;lon;timestamp;P1;durP1;ratioP1;P2;durP2;ratioP2
65982;SDS011;52740;40.620;-8.640;2022-07-10T00:00:10;12.32;;;7.72;;
65982;SDS011;52740;40.620;-8.640;2022-07-10T00:02:14;12.75;;;7.68;;
65982;SDS011;52740;40.620;-8.640;2022-07-10T00:04:15;13.75;;;8.35;;
65982;SDS011;52740;40.620;-8.640;2022-07-10T00:06:16;15.48;;;8.07;;
65982;SDS011;52740;40.620;-8.640;2022-07-10T00:08:16;16.52;;;8.13;;
65982;SDS011;52740;40.620;-8.640;2022-07-10T00:10:18;13.55;;;7.43;;
65982;SDS011;52740;40.620;-8.640;2022-07-10T00:12:19;11.95;;;7.72;;
65982;SDS011;52740;40.620;-8.640;2022-07-10T00:14:20;14.18;;;7.85;;
65982;SDS011;52740;40.620;-8.640;2022-07-10T00:16:21;15.45;;;7.78;;
65982;SDS011;52740;40.620;-8.640;2022-07-10T00:18:22;13.10;;;7.22;;
65982;SDS011;52740;40.620;-8.640;2022-07-10T00:20:22;10.95;;;7.10;;
65982;SDS011;52740;40.620;-8.640;2022-07-10T00:22:23;16.10;;;7.82;;
65982;SDS011;52740;40.620;-8.640;2022-07-10T00:24:24;12.38;;;7.38;;
65982;SDS011;52740;40.620;-8.640;2022-07-10T00:26:25;22.42;;;8.15;;
65982;SDS011;52740;40.620;-8.640;2022-07-10T00:28:26;10.43;;;6.93;;
65982;SDS011;52740;40.620;-8.640;2022-07-10T00:30:26;10.73;;;7.93;;
65982;SDS011;52740;40.620;-8.640;2022-07-10T00:32:27;10.85;;;7.15;;
65982;SDS011;52740;40.620;-8.640;2022-07-10T00:34:28;11.00;;;6.57;;
65982;SDS011;52740;40.620;-8.640;2022-07-10T00:36:29;11.45;;;7.03;;
65982;SDS011;52740;40.620;-8.640;2022-07-10T00:38:29;13.57;;;7.50;;
65982;SDS011;52740;40.620;-8.640;2022-07-10T00:40:31;9.27;;;6.88;;
65982;SDS011;52740;40.620;-8.640;2022-07-10T00:42:31;12.15;;;6.57;;
65982;SDS011;52740;40.620;-8.640;2022-07-10T00:44:32;8.70;;;6.68;;
65982;SDS011;52740;40.620;-8.640;2022-07-10T00:46:33;11.80;;;6.10;;
65982;SDS011;52740;40.620;-8.640;2022-07-10T00:48:35;10.25;;;6.82;;
65982;SDS011;52740;40.620;-8.640;2022-07-10T00:50:36;8.73;;;6.18;;
65982;SDS011;52740;40.620;-8.640;2022-07-10T00:52:36;12.35;;;7.13;;
65982;SDS011;52740;40.620;-8.640;2022-07-10T00:54:40;12.75;;;7.95;;
65982;SDS011;52740;40.620;-8.640;2022-07-10T00:58:44;10.07;;;6.85;;
65982;SDS011;52740;40.620;-8.640;2022-07-10T01:00:46;13.77;;;7.40;;
65982;SDS011;52740;40.620;-8.640;2022-07-10T01:02:47;13.38;;;7.40;;
65982;SDS011;52740;40.620;-8.640;2022-07-10T01:04:48;12.35;;;7.88;;
65982;SDS011;52740;40.620;-8.640;2022-07-10T01:06:49;15.38;;;8.02;;
65982;SDS011;52740;40.620;-8.640;2022-07-10T01:08:50;15.60;;;6.85;;
65982;SDS011;52740;40.620;-8.640;2022-07-10T01:10:50;14.43;;;7.93;;
65982;SDS011;52740;40.620;-8.640;2022-07-10T01:12:52;11.63;;;8.10;;
65982;SDS011;52740;40.620;-8.640;2022-07-10T01:14:54;14.60;;;7.78;;
65982;SDS011;52740;40.620;-8.640;2022-07-10T01:16:55;12.65;;;7.82;;
65982;SDS011;52740;40.620;-8.640;2022-07-10T01:18:57;11.02;;;7.47;;
65982;SDS011;52740;40.620;-8.640;2022-07-10T01:20:58;13.35;;;7.13;;
65982;SDS011;52740;40.620;-8.640;2022-07-10T01:22:59;10.32;;;7.85;;
65982;SDS011;52740;40.620;-8.640;2022-07-10T01:25:01;18.33;;;8.88;;
65982;SDS011;52740;40.620;-8.640;2022-07-10T01:27:02;14.63;;;7.75;;
65982;SDS011;52740;40.620;-8.640;2022-07-10T01:29:03;12.27;;;7.95;;
65982;SDS011;52740;40.620;-8.640;2022-07-10T01:31:05;17.15;;;7.57;;
65982;SDS011;52740;40.620;-8.640;2022-07-10T01:33:06;13.05;;;8.13;;
65982;SDS011;52740;40.620;-8.640;2022-07-10T01:35:07;12.55;;;8.18;;
65982;SDS011;52740;40.620;-8.640;2022-07-10T01:37:08;11.30;;;7.82;;
65982;SDS011;52740;40.620;-8.640;2022-07-10T01:39:09;11.98;;;8.80;;
65982;SDS011;52740;40.620;-8.640;2022-07-10T01:41:10;15.38;;;8.50;;
65982;SDS011;52740;40.620;-8.640;2022-07-10T01:43:10;12.57;;;8.13;;
65982;SDS011;52740;40.620;-8.640;2022-07-10T01:45:11;13.48;;;8.00;;
65982;SDS011;52740;40.620;-8.640;2022-07-10T01:47:12;13.82;;;8.85;;
65982;SDS011;52740;40.620;-8.640;2022-07-10T01:49:13;15.75;;;8.38;;
65982;SDS011;52740;40.620;-8.640;2022-07-10T01:51:14;20.30;;;8.60;;
65982;SDS011;52740;40.620;-8.640;2022-07-10T01:53:15;15.10;;;9.13;;
65982;SDS011;52740;40.620;-8.640;2022-07-10T01:55:16;13.68;;;9.15;;
65982;SDS011;52740;40.620;-8.640;2022-07-10T01:57:17;12.70;;;8.95;;
65982;SDS011;52740;40.620;-8.640;2022-07-10T01:59:18;15.48;;;9.13;;
65982;SDS011;52740;40.620;-8.640;2022-07-10T02:01:19;32.90;;;9.80;;
65982;SDS011;52740;40.620;-8.640;2022-07-10T02:03:19;16.63;;;9.57;;
65982;SDS011;52740;40.620;-8.640;2022-07-10T02:05:38;13.85;;;8.93;;
65982;SDS011;52740;40.620;-8.640;2022-07-10T02:07:39;12.98;;;9.38;;
65982;SDS011;52740;40.620;-8.640;2022-07-10T02:09:40;13.95;;;9.50;;
65982;SDS011;52740;40.620;-8.640;2022-07-10T02:11:41;15.50;;;10.25;;
65982;SDS011;52740;40.620;-8.640;2022-07-10T02:13:42;15.35;;;9.90;;
65982;SDS011;52740;40.620;-8.640;2022-07-10T02:15:43;16.50;;;9.93;;
65982;SDS011;52740;40.620;-8.640;2022-07-10T02:17:44;17.42;;;9.75;;
65982;SDS011;52740;40.620;-8.640;2022-07-10T02:19:44;12.90;;;9.30;;
65982;SDS011;52740;40.620;-8.640;2022-07-10T02:21:45;16.33;;;9.80;;
65982;SDS011;52740;40.620;-8.640;2022-07-10T02:23:46;18.33;;;9.98;;
65982;SDS011;52740;40.620;-8.640;2022-07-10T02:25:47;19.85;;;9.82;;
65982;SDS011;52740;40.620;-8.640;2022-07-10T02:27:47;16.23;;;10.60;;
65982;SDS011;52740;40.620;-8.640;2022-07-10T02:29:48;18.10;;;10.82;;
65982;SDS011;52740;40.620;-8.640;2022-07-10T02:31:49;20.95;;;12.05;;
65982;SDS011;52740;40.620;-8.640;2022-07-10T02:33:49;19.00;;;11.23;;
65982;SDS011;52740;40.620;-8.640;2022-07-10T02:35:50;15.32;;;10.40;;
65982;SDS011;52740;40.620;-8.640;2022-07-10T02:37:51;14.95;;;10.32;;
65982;SDS011;52740;40.620;-8.640;2022-07-10T02:39:52;17.85;;;10.80;;
65982;SDS011;52740;40.620;-8.640;2022-07-10T02:41:52;18.75;;;12.10;;
65982;SDS011;52740;40.620;-8.640;2022-07-10T02:43:53;19.92;;;12.45;;
65982;SDS011;52740;40.620;-8.640;2022-07-10T02:45:54;19.40;;;10.85;;
65982;SDS011;52740;40.620;-8.640;2022-07-10T02:47:55;22.75;;;10.80;;
65982;SDS011;52740;40.620;-8.640;2022-07-10T02:49:55;19.58;;;10.55;;
65982;SDS011;52740;40.620;-8.640;2022-07-10T02:51:56;18.55;;;11.32;;
65982;SDS011;52740;40.620;-8.640;2022-07-10T02:53:58;14.63;;;9.93;;
65982;SDS011;52740;40.620;-8.640;2022-07-10T02:55:58;23.40;;;12.68;;
65982;SDS011;52740;40.620;-8.640;2022-07-10T02:57:59;21.17;;;12.13;;
65982;SDS011;52740;40.620;-8.640;2022-07-10T03:00:00;18.50;;;10.10;;
65982;SDS011;52740;40.620;-8.640;2022-07-10T03:02:01;17.58;;;10.45;;
65982;SDS011;52740;40.620;-8.640;2022-07-10T03:04:01;19.98;;;10.45;;
65982;SDS011;52740;40.620;-8.640;2022-07-10T03:06:02;17.17;;;11.05;;
65982;SDS011;52740;40.620;-8.640;2022-07-10T03:08:03;17.20;;;10.80;;
65982;SDS011;52740;40.620;-8.640;2022-07-10T03:10:04;20.55;;;10.80;;
65982;SDS011;52740;40.620;-8.640;2022-07-10T03:12:09;21.60;;;10.52;;
65982;SDS011;52740;40.620;-8.640;2022-07-10T03:14:10;18.77;;;10.00;;
65982;SDS011;52740;40.620;-8.640;2022-07-10T03:16:11;21.13;;;9.65;;
65982;SDS011;52740;40.620;-8.640;2022-07-10T03:18:11;16.90;;;10.60;;
65982;SDS011;52740;40.620;-8.640;2022-07-10T03:20:12;18.65;;;11.40;;
65982;SDS011;52740;40.620;-8.640;2022-07-10T03:22:13;18.58;;;11.50;;
65982;SDS011;52740;40.620;-8.640;2022-07-10T03:24:13;19.67;;;11.65;;
65982;SDS011;52740;40.620;-8.640;2022-07-10T03:26:14;19.38;;;12.43;;
65982;SDS011;52740;40.620;-8.640;2022-07-10T03:28:15;22.70;;;11.30;;
65982;SDS011;52740;40.620;-8.640;2022-07-10T03:30:15;16.83;;;11.30;;
65982;SDS011;52740;40.620;-8.640;2022-07-10T03:32:16;15.98;;;10.55;;
65982;SDS011;52740;40.620;-8.640;2022-07-10T03:34:17;16.63;;;10.13;;
65982;SDS011;52740;40.620;-8.640;2022-07-10T03:36:18;22.95;;;10.88;;
65982;SDS011;52740;40.620;-8.640;2022-07-10T03:38:19;15.88;;;10.80;;
65982;SDS011;52740;40.620;-8.640;2022-07-10T03:40:20;19.17;;;12.15;;
65982;SDS011;52740;40.620;-8.640;2022-07-10T03:42:20;23.85;;;13.38;;
65982;SDS011;52740;40.620;-8.640;2022-07-10T03:44:21;19.90;;;11.95;;
65982;SDS011;52740;40.620;-8.640;2022-07-10T03:46:22;22.58;;;12.10;;
65982;SDS011;52740;40.620;-8.640;2022-07-10T03:48:22;20.85;;;12.57;;
65982;SDS011;52740;40.620;-8.640;2022-07-10T03:50:23;19.77;;;11.80;;
65982;SDS011;52740;40.620;-8.640;2022-07-10T03:52:24;24.67;;;12.70;;
65982;SDS011;52740;40.620;-8.640;2022-07-10T03:54:25;17.73;;;11.40;;
65982;SDS011;52740;40.620;-8.640;2022-07-10T03:56:25;22.20;;;13.43;;
65982;SDS011;52740;40.620;-8.640;2022-07-10T03:58:44;15.98;;;10.38;;
65982;SDS011;52740;40.620;-8.640;2022-07-10T04:00:45;18.40;;;10.27;;
65982;SDS011;52740;40.620;-8.640;2022-07-10T04:02:46;18.13;;;10.02;;
65982;SDS011;52740;40.620;-8.640;2022-07-10T04:04:47;19.30;;;11.45;;
65982;SDS011;52740;40.620;-8.640;2022-07-10T04:06:47;25.77;;;11.88;;
65982;SDS011;52740;40.620;-8.640;2022-07-10T04:08:48;18.83;;;11.43;;
65982;SDS011;52740;40.620;-8.640;2022-07-10T04:10:49;19.88;;;11.90;;
65982;SDS011;52740;40.620;-8.640;2022-07-10T04:12:49;20.85;;;12.43;;
65982;SDS011;52740;40.620;-8.640;2022-07-10T04:14:51;24.92;;;11.35;;
65982;SDS011;52740;40.620;-8.640;2022-07-10T04:16:52;21.65;;;12.02;;
65982;SDS011;52740;40.620;-8.640;2022-07-10T04:18:53;19.70;;;11.73;;
65982;SDS011;52740;40.620;-8.640;2022-07-10T04:20:54;25.75;;;11.68;;
65982;SDS011;52740;40.620;-8.640;2022-07-10T04:22:54;18.98;;;11.73;;
65982;SDS011;52740;40.620;-8.640;2022-07-10T04:24:56;22.42;;;11.75;;
65982;SDS011;52740;40.620;-8.640;2022-07-10T04:26:57;21.52;;;11.93;;
65982;SDS011;52740;40.620;-8.640;2022-07-10T04:28:58;19.73;;;12.20;;
65982;SDS011;52740;40.620;-8.640;2022-07-10T04:30:58;19.20;;;11.52;;
65982;SDS011;52740;40.620;-8.640;2022-07-10T04:32:59;19.17;;;10.90;;
65982;SDS011;52740;40.620;-8.640;2022-07-10T04:35:00;18.75;;;11.00;;
65982;SDS011;52740;40.620;-8.640;2022-07-10T04:37:04;21.58;;;12.50;;
65982;SDS011;52740;40.620;-8.640;2022-07-10T04:39:05;18.40;;;12.02;;
65982;SDS011;52740;40.620;-8.640;2022-07-10T04:41:06;19.98;;;11.57;;
65982;SDS011;52740;40.620;-8.640;2022-07-10T04:43:07;23.20;;;12.00;;
65982;SDS011;52740;40.620;-8.640;2022-07-10T04:45:07;19.75;;;12.15;;
65982;SDS011;52740;40.620;-8.640;2022-07-10T04:47:08;18.30;;;11.82;;
65982;SDS011;52740;40.620;-8.640;2022-07-10T04:49:09;18.92;;;11.52;;
65982;SDS011;52740;40.620;-8.640;2022-07-10T04:51:10;20.35;;;12.15;;
65982;SDS011;52740;40.620;-8.640;2022-07-10T04:53:11;18.27;;;11.48;;
65982;SDS011;52740;40.620;-8.640;2022-07-10T04:55:12;17.92;;;11.00;;
65982;SDS011;52740;40.620;-8.640;2022-07-10T04:57:13;20.33;;;11.85;;
65982;SDS011;52740;40.620;-8.640;2022-07-10T04:59:14;25.27;;;11.93;;
65982;SDS011;52740;40.620;-8.640;2022-07-10T05:01:14;18.27;;;11.70;;
65982;SDS011;52740;40.620;-8.640;2022-07-10T05:03:15;18.13;;;10.52;;
65982;SDS011;52740;40.620;-8.640;2022-07-10T05:05:16;20.13;;;12.90;;
65982;SDS011;52740;40.620;-8.640;2022-07-10T05:07:17;19.05;;;9.98;;
65982;SDS011;52740;40.620;-8.640;2022-07-10T05:09:17;24.23;;;11.10;;
65982;SDS011;52740;40.620;-8.640;2022-07-10T05:11:20;23.88;;;12.25;;
65982;SDS011;52740;40.620;-8.640;2022-07-10T05:13:21;21.38;;;12.90;;
65982;SDS011;52740;40.620;-8.640;2022-07-10T05:15:21;21.35;;;11.82;;
65982;SDS011;52740;40.620;-8.640;2022-07-10T05:17:22;19.00;;;12.57;;
65982;SDS011;52740;40.620;-8.640;2022-07-10T05:19:23;22.95;;;10.95;;
65982;SDS011;52740;40.620;-8.640;2022-07-10T05:21:24;22.20;;;12.40;;
65982;SDS011;52740;40.620;-8.640;2022-07-10T05:23:25;22.42;;;11.52;;
65982;SDS011;52740;40.620;-8.640;2022-07-10T05:25:26;25.70;;;13.40;;
65982;SDS011;52740;40.620;-8.640;2022-07-10T05:27:30;21.80;;;11.38;;
65982;SDS011;52740;40.620;-8.640;2022-07-10T05:29:31;22.42;;;11.68;;
65982;SDS011;52740;40.620;-8.640;2022-07-10T05:31:31;22.92;;;12.20;;
65982;SDS011;52740;40.620;-8.640;2022-07-10T05:33:32;30.58;;;13.52;;
65982;SDS011;52740;40.620;-8.640;2022-07-10T05:35:34;23.15;;;12.35;;
65982;SDS011;52740;40.620;-8.640;2022-07-10T05:37:35;27.13;;;12.50;;
65982;SDS011;52740;40.620;-8.640;2022-07-10T05:39:35;22.92;;;11.60;;
65982;SDS011;52740;40.620;-8.640;2022-07-10T05:41:36;21.27;;;11.65;;
65982;SDS011;52740;40.620;-8.640;2022-07-10T05:43:37;25.10;;;12.18;;
65982;SDS011;52740;40.620;-8.640;2022-07-10T05:45:38;23.70;;;12.40;;
65982;SDS011;52740;40.620;-8.640;2022-07-10T05:47:39;21.45;;;12.95;;
65982;SDS011;52740;40.620;-8.640;2022-07-10T05:49:40;22.13;;;12.38;;
65982;SDS011;52740;40.620;-8.640;2022-07-10T05:51:41;23.33;;;11.45;;
65982;SDS011;52740;40.620;-8.640;2022-07-10T05:53:42;18.38;;;12.07;;
65982;SDS011;52740;40.620;-8.640;2022-07-10T05:55:43;22.10;;;12.05;;
65982;SDS011;52740;40.620;-8.640;2022-07-10T05:57:47;20.15;;;11.50;;
65982;SDS011;52740;40.620;-8.640;2022-07-10T05:59:48;23.55;;;11.95;;
65982;SDS011;52740;40.620;-8.640;2022-07-10T06:01:49;25.58;;;11.73;;
65982;SDS011;52740;40.620;-8.640;2022-07-10T06:03:50;17.83;;;10.63;;
65982;SDS011;52740;40.620;-8.640;2022-07-10T06:05:50;17.23;;;10.43;;
65982;SDS011;52740;40.620;-8.640;2022-07-10T06:07:51;20.20;;;11.55;;
65982;SDS011;52740;40.620;-8.640;2022-07-10T06:09:52;18.98;;;10.55;;
65982;SDS011;52740;40.620;-8.640;2022-07-10T06:11:53;21.33;;;11.30;;
65982;SDS011;52740;40.620;-8.640;2022-07-10T06:13:53;21.45;;;11.50;;
65982;SDS011;52740;40.620;-8.640;2022-07-10T06:15:54;20.02;;;11.30;;
65982;SDS011;52740;40.620;-8.640;2022-07-10T06:17:58;21.23;;;11.95;;
65982;SDS011;52740;40.620;-8.640;2022-07-10T06:19:58;23.63;;;12.02;;
65982;SDS011;52740;40.620;-8.640;2022-07-10T06:21:59;18.30;;;11.73;;
65982;SDS011;52740;40.620;-8.640;2022-07-10T06:24:18;30.38;;;13.73;;
65982;SDS011;52740;40.620;-8.640;2022-07-10T06:26:19;24.35;;;13.30;;
65982;SDS011;52740;40.620;-8.640;2022-07-10T06:28:19;20.67;;;12.60;;
65982;SDS011;52740;40.620;-8.640;2022-07-10T06:30:21;25.48;;;12.88;;
65982;SDS011;52740;40.620;-8.640;2022-07-10T06:32:22;22.48;;;13.60;;
65982;SDS011;52740;40.620;-8.640;2022-07-10T06:34:24;32.20;;;13.05;;
65982;SDS011;52740;40.620;-8.640;2022-07-10T06:36:25;29.13;;;14.18;;
65982;SDS011;52740;40.620;-8.640;2022-07-10T06:38:25;28.73;;;14.18;;
65982;SDS011;52740;40.620;-8.640;2022-07-10T06:40:26;24.05;;;13.90;;
65982;SDS011;52740;40.620;-8.640;2022-07-10T06:42:29;29.50;;;13.63;;
65982;SDS011;52740;40.620;-8.640;2022-07-10T06:44:33;27.10;;;13.65;;
65982;SDS011;52740;40.620;-8.640;2022-07-10T06:46:34;32.50;;;13.77;;
65982;SDS011;52740;40.620;-8.640;2022-07-10T06:48:35;31.08;;;16.88;;
65982;SDS011;52740;40.620;-8.640;2022-07-10T06:50:39;26.70;;;14.23;;
65982;SDS011;52740;40.620;-8.640;2022-07-10T06:52:41;33.20;;;13.65;;
65982;SDS011;52740;40.620;-8.640;2022-07-10T06:54:43;41.10;;;17.38;;
65982;SDS011;52740;40.620;-8.640;2022-07-10T06:56:43;31.25;;;14.63;;
65982;SDS011;52740;40.620;-8.640;2022-07-10T06:58:44;26.13;;;13.93;;
65982;SDS011;52740;40.620;-8.640;2022-07-10T07:00:45;37.65;;;14.88;;
65982;SDS011;52740;40.620;-8.640;2022-07-10T07:02:46;32.20;;;15.40;;
65982;SDS011;52740;40.620;-8.640;2022-07-10T07:04:46;35.05;;;14.90;;
65982;SDS011;52740;40.620;-8.640;2022-07-10T07:06:47;40.78;;;15.65;;
65982;SDS011;52740;40.620;-8.640;2022-07-10T07:08:48;29.50;;;15.30;;
65982;SDS011;52740;40.620;-8.640;2022-07-10T07:10:48;31.52;;;14.43;;
65982;SDS011;52740;40.620;-8.640;2022-07-10T07:12:49;27.73;;;15.02;;
65982;SDS011;52740;40.620;-8.640;2022-07-10T07:14:50;32.33;;;13.52;;
65982;SDS011;52740;40.620;-8.640;2022-07-10T07:16:50;33.25;;;13.15;;
65982;SDS011;52740;40.620;-8.640;2022-07-10T07:18:59;40.00;;;14.15;;
65982;SDS011;52740;40.620;-8.640;2022-07-10T07:21:00;25.77;;;11.23;;
65982;SDS011;52740;40.620;-8.640;2022-07-10T07:23:19;35.28;;;13.45;;
65982;SDS011;52740;40.620;-8.640;2022-07-10T07:25:20;31.90;;;12.13;;
65982;SDS011;52740;40.620;-8.640;2022-07-10T07:27:21;24.52;;;10.80;;
65982;SDS011;52740;40.620;-8.640;2022-07-10T07:29:21;27.60;;;11.35;;
65982;SDS011;52740;40.620;-8.640;2022-07-10T07:31:22;33.88;;;12.25;;
65982;SDS011;52740;40.620;-8.640;2022-07-10T07:33:23;26.13;;;10.65;;
65982;SDS011;52740;40.620;-8.640;2022-07-10T07:35:24;24.48;;;11.23;;
65982;SDS011;52740;40.620;-8.640;2022-07-10T07:37:46;24.70;;;11.73;;
65982;SDS011;52740;40.620;-8.640;2022-07-10T07:39:46;31.80;;;12.30;;
65982;SDS011;52740;40.620;-8.640;2022-07-10T07:41:47;22.98;;;12.45;;
65982;SDS011;52740;40.620;-8.640;2022-07-10T07:43:48;23.50;;;12.90;;
65982;SDS011;52740;40.620;-8.640;2022-07-10T07:45:49;32.08;;;12.52;;
65982;SDS011;52740;40.620;-8.640;2022-07-10T07:47:51;29.92;;;12.52;;
65982;SDS011;52740;40.620;-8.640;2022-07-10T07:49:56;27.27;;;12.52;;
65982;SDS011;52740;40.620;-8.640;2022-07-10T07:51:57;29.30;;;11.82;;
65982;SDS011;52740;40.620;-8.640;2022-07-10T07:53:57;24.98;;;12.77;;
65982;SDS011;52740;40.620;-8.640;2022-07-10T07:55:58;26.48;;;12.82;;
65982;SDS011;52740;40.620;-8.640;2022-07-10T07:57:59;32.70;;;14.35;;
65982;SDS011;52740;40.620;-8.640;2022-07-10T08:00:02;22.58;;;12.45;;
65982;SDS011;52740;40.620;-8.640;2022-07-10T08:02:12;25.58;;;13.82;;
65982;SDS011;52740;40.620;-8.640;2022-07-10T08:04:13;28.75;;;13.00;;
65982;SDS011;52740;40.620;-8.640;2022-07-10T08:06:13;23.77;;;11.32;;
65982;SDS011;52740;40.620;-8.640;2022-07-10T08:08:14;24.58;;;11.63;;
65982;SDS011;52740;40.620;-8.640;2022-07-10T08:10:15;23.58;;;10.35;;
65982;SDS011;52740;40.620;-8.640;2022-07-10T08:12:17;23.48;;;10.90;;
65982;SDS011;52740;40.620;-8.640;2022-07-10T08:14:18;20.95;;;11.48;;
65982;SDS011;52740;40.620;-8.640;2022-07-10T08:16:19;20.63;;;10.13;;
65982;SDS011;52740;40.620;-8.640;2022-07-10T08:18:20;21.58;;;11.20;;
65982;SDS011;52740;40.620;-8.640;2022-07-10T08:20:21;22.33;;;11.30;;
65982;SDS011;52740;40.620;-8.640;2022-07-10T08:22:22;15.82;;;9.27;;
65982;SDS011;52740;40.620;-8.640;2022-07-10T08:24:23;13.88;;;8.77;;
65982;SDS011;52740;40.620;-8.640;2022-07-10T08:26:24;16.17;;;8.15;;
65982;SDS011;52740;40.620;-8.640;2022-07-10T08:28:25;18.10;;;8.65;;
65982;SDS011;52740;40.620;-8.640;2022-07-10T08:30:25;21.40;;;8.90;;
65982;SDS011;52740;40.620;-8.640;2022-07-10T08:32:26;20.63;;;8.45;;
65982;SDS011;52740;40.620;-8.640;2022-07-10T08:34:27;18.33;;;9.15;;
65982;SDS011;52740;40.620;-8.640;2022-07-10T08:36:28;20.20;;;9.35;;
65982;SDS011;52740;40.620;-8.640;2022-07-10T08:38:28;13.73;;;7.60;;
65982;SDS011;52740;40.620;-8.640;2022-07-10T08:40:33;15.68;;;8.35;;
65982;SDS011;52740;40.620;-8.640;2022-07-10T08:42:36;13.98;;;7.07;;
65982;SDS011;52740;40.620;-8.640;2022-07-10T08:44:38;18.92;;;7.85;;
65982;SDS011;52740;40.620;-8.640;2022-07-10T08:46:39;15.82;;;7.72;;
65982;SDS011;52740;40.620;-8.640;2022-07-10T08:48:40;10.93;;;6.38;;
65982;SDS011;52740;40.620;-8.640;2022-07-10T08:50:44;11.52;;;5.70;;
65982;SDS011;52740;40.620;-8.640;2022-07-10T08:52:48;11.93;;;6.53;;
65982;SDS011;52740;40.620;-8.640;2022-07-10T08:54:56;10.00;;;6.13;;
65982;SDS011;52740;40.620;-8.640;2022-07-10T08:56:58;10.18;;;5.82;;
65982;SDS011;52740;40.620;-8.640;2022-07-10T08:59:03;10.20;;;6.18;;
65982;SDS011;52740;40.620;-8.640;2022-07-10T09:01:07;9.68;;;5.72;;
65982;SDS011;52740;40.620;-8.640;2022-07-10T09:03:07;12.57;;;5.70;;
65982;SDS011;52740;40.620;-8.640;2022-07-10T09:05:08;13.30;;;6.18;;
65982;SDS011;52740;40.620;-8.640;2022-07-10T09:07:09;12.38;;;5.43;;
65982;SDS011;52740;40.620;-8.640;2022-07-10T09:09:10;8.55;;;5.50;;
65982;SDS011;52740;40.620;-8.640;2022-07-10T09:11:15;11.35;;;6.35;;
65982;SDS011;52740;40.620;-8.640;2022-07-10T09:13:17;8.13;;;6.03;;
65982;SDS011;52740;40.620;-8.640;2022-07-10T09:15:19;12.07;;;6.90;;
65982;SDS011;52740;40.620;-8.640;2022-07-10T09:17:22;9.13;;;5.78;;
65982;SDS011;52740;40.620;-8.640;2022-07-10T09:19:27;7.25;;;5.60;;
65982;SDS011;52740;40.620;-8.640;2022-07-10T09:21:32;11.57;;;5.95;;
65982;SDS011;52740;40.620;-8.640;2022-07-10T09:23:33;7.22;;;5.18;;
65982;SDS011;52740;40.620;-8.640;2022-07-10T09:25:34;8.88;;;6.43;;
65982;SDS011;52740;40.620;-8.640;2022-07-10T09:27:35;10.38;;;6.63;;
65982;SDS011;52740;40.620;-8.640;2022-07-10T09:29:52;8.73;;;5.85;;
65982;SDS011;52740;40.620;-8.640;2022-07-10T09:33:59;12.60;;;7.53;;
65982;SDS011;52740;40.620;-8.640;2022-07-10T09:36:01;14.23;;;7.40;;
65982;SDS011;52740;40.620;-8.640;2022-07-10T09:38:12;15.77;;;8.23;;
65982;SDS011;52740;40.620;-8.640;2022-07-10T09:40:13;12.77;;;7.05;;
65982;SDS011;52740;40.620;-8.640;2022-07-10T09:44:48;17.08;;;7.55;;
65982;SDS011;52740;40.620;-8.640;2022-07-10T09:46:49;12.90;;;7.15;;
65982;SDS011;52740;40.620;-8.640;2022-07-10T09:51:20;14.90;;;8.23;;
65982;SDS011;52740;40.620;-8.640;2022-07-10T09:53:21;14.27;;;7.45;;
65982;SDS011;52740;40.620;-8.640;2022-07-10T09:55:23;15.35;;;7.55;;
65982;SDS011;52740;40.620;-8.640;2022-07-10T09:57:27;19.42;;;7.82;;
65982;SDS011;52740;40.620;-8.640;2022-07-10T09:59:30;15.77;;;6.88;;
65982;SDS011;52740;40.620;-8.640;2022-07-10T10:01:32;16.38;;;7.63;;
65982;SDS011;52740;40.620;-8.640;2022-07-10T10:03:36;17.40;;;8.38;;
65982;SDS011;52740;40.620;-8.640;2022-07-10T10:07:53;13.02;;;7.45;;
65982;SDS011;52740;40.620;-8.640;2022-07-10T10:09:55;15.98;;;8.13;;
65982;SDS011;52740;40.620;-8.640;2022-07-10T10:12:23;18.17;;;6.68;;
65982;SDS011;52740;40.620;-8.640;2022-07-10T10:14:27;12.98;;;8.27;;
65982;SDS011;52740;40.620;-8.640;2022-07-10T10:16:29;16.23;;;7.82;;
65982;SDS011;52740;40.620;-8.640;2022-07-10T10:18:30;14.15;;;7.55;;
65982;SDS011;52740;40.620;-8.640;2022-07-10T10:20:32;21.08;;;9.30;;
65982;SDS011;52740;40.620;-8.640;2022-07-10T10:22:41;22.52;;;8.90;;
65982;SDS011;52740;40.620;-8.640;2022-07-10T10:24:44;15.77;;;7.90;;
65982;SDS011;52740;40.620;-8.640;2022-07-10T10:26:46;21.15;;;9.10;;
65982;SDS011;52740;40.620;-8.640;2022-07-10T10:28:47;12.30;;;7.72;;
65982;SDS011;52740;40.620;-8.640;2022-07-10T10:30:48;14.90;;;8.13;;
65982;SDS011;52740;40.620;-8.640;2022-07-10T10:32:49;13.75;;;6.53;;
65982;SDS011;52740;40.620;-8.640;2022-07-10T10:34:50;15.77;;;7.30;;
65982;SDS011;52740;40.620;-8.640;2022-07-10T10:36:57;11.93;;;6.85;;
65982;SDS011;52740;40.620;-8.640;2022-07-10T10:39:02;13.65;;;6.65;;
65982;SDS011;52740;40.620;-8.640;2022-07-10T10:41:26;10.10;;;6.20;;
65982;SDS011;52740;40.620;-8.640;2022-07-10T10:43:27;8.13;;;5.30;;
65982;SDS011;52740;40.620;-8.640;2022-07-10T10:45:32;8.85;;;5.82;;
65982;SDS011;52740;40.620;-8.640;2022-07-10T10:52:11;9.18;;;6.35;;
65982;SDS011;52740;40.620;-8.640;2022-07-10T10:54:15;9.85;;;5.65;;
65982;SDS011;52740;40.620;-8.640;2022-07-10T10:58:17;8.68;;;6.07;;
65982;SDS011;52740;40.620;-8.640;2022-07-10T11:00:36;9.13;;;5.95;;
65982;SDS011;52740;40.620;-8.640;2022-07-10T11:02:40;8.63;;;5.63;;
65982;SDS011;52740;40.620;-8.640;2022-07-10T11:04:42;5.43;;;4.90;;
65982;SDS011;52740;40.620;-8.640;2022-07-10T11:08:44;4.78;;;4.22;;
65982;SDS011;52740;40.620;-8.640;2022-07-10T11:10:45;5.82;;;4.50;;
65982;SDS011;52740;40.620;-8.640;2022-07-10T11:12:59;5.85;;;4.63;;
65982;SDS011;52740;40.620;-8.640;2022-07-10T11:15:13;5.25;;;4.28;;
65982;SDS011;52740;40.620;-8.640;2022-07-10T11:17:15;5.55;;;4.40;;
65982;SDS011;52740;40.620;-8.640;2022-07-10T11:19:19;7.30;;;5.65;;
65982;SDS011;52740;40.620;-8.640;2022-07-10T11:21:22;5.03;;;4.47;;
65982;SDS011;52740;40.620;-8.640;2022-07-10T11:26:08;5.75;;;3.75;;
65982;SDS011;52740;40.620;-8.640;2022-07-10T11:28:11;6.32;;;4.70;;
65982;SDS011;52740;40.620;-8.640;2022-07-10T11:30:14;4.80;;;4.32;;
65982;SDS011;52740;40.620;-8.640;2022-07-10T11:32:16;7.15;;;5.63;;
65982;SDS011;52740;40.620;-8.640;2022-07-10T11:34:17;8.15;;;5.40;;
65982;SDS011;52740;40.620;-8.640;2022-07-10T11:36:21;4.22;;;3.72;;
65982;SDS011;52740;40.620;-8.640;2022-07-10T11:38:27;4.18;;;3.10;;
65982;SDS011;52740;40.620;-8.640;2022-07-10T11:40:28;4.78;;;3.85;;
65982;SDS011;52740;40.620;-8.640;2022-07-10T11:42:36;5.35;;;3.90;;
65982;SDS011;52740;40.620;-8.640;2022-07-10T11:44:48;4.13;;;3.78;;
65982;SDS011;52740;40.620;-8.640;2022-07-10T11:46:49;6.43;;;4.63;;
65982;SDS011;52740;40.620;-8.640;2022-07-10T11:48:50;5.43;;;4.28;;
65982;SDS011;52740;40.620;-8.640;2022-07-10T11:50:56;4.03;;;3.63;;
65982;SDS011;52740;40.620;-8.640;2022-07-10T11:52:58;6.00;;;4.22;;
65982;SDS011;52740;40.620;-8.640;2022-07-10T11:55:12;4.10;;;3.78;;
65982;SDS011;52740;40.620;-8.640;2022-07-10T11:57:17;4.65;;;4.25;;
65982;SDS011;52740;40.620;-8.640;2022-07-10T11:59:17;4.55;;;3.70;;
65982;SDS011;52740;40.620;-8.640;2022-07-10T12:01:23;4.55;;;4.00;;
65982;SDS011;52740;40.620;-8.640;2022-07-10T12:03:25;4.30;;;3.88;;
65982;SDS011;52740;40.620;-8.640;2022-07-10T12:05:38;4.00;;;3.60;;
65982;SDS011;52740;40.620;-8.640;2022-07-10T12:07:39;4.28;;;3.72;;
65982;SDS011;52740;40.620;-8.640;2022-07-10T12:09:40;4.68;;;3.78;;
65982;SDS011;52740;40.620;-8.640;2022-07-10T12:11:41;4.38;;;3.97;;